createdAt,value
2018-03-28T00:01:43.773Z,80.30
2018-03-28T00:04:09.720Z,81.50
2018-03-28T00:06:36.412Z,82.40
2018-03-28T00:09:02.501Z,82.40
2018-03-28T00:11:28.456Z,82.70
2018-03-28T00:13:54.441Z,82.90
2018-03-28T00:16:21.281Z,84.40
2018-03-28T00:18:47.997Z,85.00
2018-03-28T00:21:13.956Z,85.10
2018-03-28T00:23:40.056Z,86.20
2018-03-28T00:26:06.746Z,87.50
2018-03-28T00:28:32.734Z,87.50
2018-03-28T00:30:58.737Z,87.60
2018-03-28T00:33:25.481Z,87.50
2018-03-28T00:35:51.444Z,87.50
2018-03-28T00:38:17.554Z,87.60
2018-03-28T00:40:43.542Z,87.80
2018-03-28T00:43:10.234Z,87.90
2018-03-28T00:45:36.217Z,87.90
2018-03-28T00:48:02.184Z,88.00
2018-03-28T00:50:28.302Z,87.70
2018-03-28T00:52:54.260Z,87.70
2018-03-28T00:55:20.265Z,88.10
2018-03-28T00:57:46.222Z,88.00
2018-03-28T01:00:12.208Z,88.10
2018-03-28T01:02:38.161Z,88.30
2018-03-28T01:05:04.144Z,88.30
2018-03-28T01:07:30.105Z,88.50
2018-03-28T01:09:56.941Z,88.30
2018-03-28T01:12:22.928Z,88.30
2018-03-28T01:14:49.101Z,88.70
2018-03-28T01:17:15.849Z,88.80
2018-03-28T01:19:42.532Z,88.80
2018-03-28T01:22:08.620Z,88.80
2018-03-28T01:24:35.317Z,89.00
2018-03-28T01:27:01.289Z,89.10
2018-03-28T01:29:27.229Z,89.40
2018-03-28T01:31:53.205Z,89.50
2018-03-28T01:34:19.172Z,89.70
2018-03-28T01:36:45.164Z,89.90
2018-03-28T01:39:11.865Z,90.20
2018-03-28T01:41:37.976Z,90.20
2018-03-28T01:44:03.967Z,90.10
2018-03-28T01:46:29.924Z,90.20
2018-03-28T01:48:55.905Z,90.10
2018-03-28T01:51:21.872Z,90.10
2018-03-28T01:53:47.993Z,90.00
2018-03-28T01:56:13.945Z,89.60
2018-03-28T01:58:39.897Z,89.40
2018-03-28T02:01:05.901Z,89.40
2018-03-28T02:03:32.613Z,88.80
2018-03-28T02:05:58.585Z,88.80
2018-03-28T02:08:24.580Z,88.70
2018-03-28T02:10:50.669Z,89.20
2018-03-28T02:13:16.625Z,88.30
2018-03-28T02:15:42.736Z,88.70
2018-03-28T02:18:08.693Z,89.00
2018-03-28T02:20:34.693Z,89.00
2018-03-28T02:23:00.674Z,89.20
2018-03-28T02:25:26.600Z,89.40
2018-03-28T02:27:52.686Z,89.20
2018-03-28T02:30:18.651Z,89.40
2018-03-28T02:32:44.638Z,89.90
2018-03-28T02:35:10.606Z,90.10
2018-03-28T02:37:36.597Z,90.30
2018-03-28T02:40:02.550Z,90.50
2018-03-28T02:42:28.500Z,90.80
2018-03-28T02:44:54.595Z,91.00
2018-03-28T02:47:20.549Z,91.10
2018-03-28T02:49:47.280Z,91.40
2018-03-28T02:52:13.261Z,91.40
2018-03-28T02:54:39.254Z,91.40
2018-03-28T02:57:05.222Z,91.50
2018-03-28T02:59:31.313Z,91.50
2018-03-28T03:01:57.265Z,91.50
2018-03-28T03:04:23.237Z,91.60
2018-03-28T03:06:49.923Z,91.70
2018-03-28T03:09:15.913Z,91.80
2018-03-28T03:11:41.872Z,91.90
2018-03-28T03:14:08.090Z,91.80
2018-03-28T03:16:34.068Z,91.70
2018-03-28T03:19:00.811Z,91.60
2018-03-28T03:21:27.508Z,91.60
2018-03-28T03:23:53.512Z,91.50
2018-03-28T03:26:19.457Z,91.50
2018-03-28T03:28:45.413Z,91.40
2018-03-28T03:31:11.500Z,91.60
2018-03-28T03:33:37.457Z,91.60
2018-03-28T03:36:04.172Z,91.60
2018-03-28T03:38:30.128Z,91.50
2018-03-28T03:40:56.113Z,91.50
2018-03-28T03:43:22.070Z,91.50
2018-03-28T03:45:48.829Z,91.30
2018-03-28T03:48:14.796Z,91.30
2018-03-28T03:50:40.761Z,91.30
2018-03-28T03:53:06.726Z,91.40
2018-03-28T03:55:32.843Z,91.50
2018-03-28T03:57:58.799Z,91.40
2018-03-28T04:00:24.745Z,91.60
2018-03-28T04:02:51.473Z,91.60
2018-03-28T04:05:18.177Z,91.70
2018-03-28T04:07:44.157Z,91.70
2018-03-28T04:10:10.118Z,92.10
2018-03-28T04:12:36.244Z,91.60
2018-03-28T04:15:02.340Z,91.60
2018-03-28T04:17:28.449Z,91.60
2018-03-28T04:19:55.138Z,91.50
2018-03-28T04:22:21.101Z,91.50
2018-03-28T04:24:47.816Z,91.30
2018-03-28T04:27:13.768Z,91.30
2018-03-28T04:29:39.863Z,91.40
2018-03-28T04:32:05.816Z,91.30
2018-03-28T04:34:31.822Z,91.20
2018-03-28T04:36:58.530Z,91.00
2018-03-28T04:39:24.553Z,91.00
2018-03-28T04:41:50.501Z,90.90
2018-03-28T04:44:16.637Z,90.90
2018-03-28T04:46:43.353Z,90.80
2018-03-28T04:49:09.328Z,90.80
2018-03-28T04:51:35.309Z,90.50
2018-03-28T04:54:01.257Z,90.40
2018-03-28T04:56:27.213Z,90.60
2018-03-28T04:58:53.197Z,90.50
2018-03-28T05:01:20.053Z,90.30
2018-03-28T05:03:46.029Z,90.30
2018-03-28T05:06:11.978Z,90.40
2018-03-28T05:08:38.732Z,90.40
2018-03-28T05:11:04.697Z,90.40
2018-03-28T05:13:30.641Z,90.10
2018-03-28T05:15:56.759Z,89.80
2018-03-28T05:18:22.777Z,89.60
2018-03-28T05:20:48.728Z,88.90
2018-03-28T05:23:15.427Z,87.80
2018-03-28T05:25:41.517Z,87.80
2018-03-28T05:28:07.472Z,87.90
2018-03-28T05:30:33.460Z,87.80
2018-03-28T05:32:59.420Z,87.40
2018-03-28T05:35:25.510Z,87.70
2018-03-28T05:37:51.464Z,87.00
2018-03-28T05:40:17.453Z,86.40
2018-03-28T05:42:43.425Z,86.10
2018-03-28T05:45:09.422Z,86.70
2018-03-28T05:47:35.381Z,85.50
2018-03-28T05:50:01.340Z,85.30
2018-03-28T05:52:27.299Z,85.40
2018-03-28T05:54:53.264Z,84.90
2018-03-28T05:57:20.101Z,84.10
2018-03-28T05:59:46.785Z,84.20
2018-03-28T06:02:12.793Z,84.00
2018-03-28T06:04:38.784Z,82.90
2018-03-28T06:07:05.497Z,82.20
2018-03-28T06:09:31.448Z,82.10
2018-03-28T06:11:58.284Z,82.60
2018-03-28T06:14:24.360Z,82.60
2018-03-28T06:16:50.339Z,82.40
2018-03-28T06:19:16.333Z,82.40
2018-03-28T06:21:42.307Z,82.90
2018-03-28T06:24:08.380Z,82.80
2018-03-28T06:26:34.310Z,82.90
2018-03-28T06:29:00.403Z,82.70
2018-03-28T06:31:26.356Z,82.90
2018-03-28T06:33:52.340Z,83.10
2018-03-28T06:36:18.310Z,82.70
2018-03-28T06:38:44.322Z,82.70
2018-03-28T06:41:10.273Z,82.40
2018-03-28T06:43:36.347Z,82.50
2018-03-28T06:46:02.290Z,83.30
2018-03-28T06:48:28.265Z,82.30
2018-03-28T06:50:54.249Z,83.40
2018-03-28T06:53:20.977Z,82.10
2018-03-28T06:55:46.923Z,82.00
2018-03-28T06:58:12.922Z,82.30
2018-03-28T07:00:39.788Z,83.00
2018-03-28T07:03:06.505Z,82.20
2018-03-28T07:05:32.512Z,82.20
2018-03-28T07:07:58.503Z,81.10
2018-03-28T07:10:24.446Z,80.60
2018-03-28T07:12:50.433Z,79.60
2018-03-28T07:15:16.548Z,79.30
2018-03-28T07:17:42.654Z,78.50
2018-03-28T07:20:08.629Z,78.40
2018-03-28T07:22:34.633Z,77.90
2018-03-28T07:25:00.592Z,77.80
2018-03-28T07:27:26.604Z,78.30
2018-03-28T07:29:52.587Z,78.20
2018-03-28T07:32:18.540Z,78.10
2018-03-28T07:34:44.649Z,78.30
2018-03-28T07:37:10.602Z,77.90
2018-03-28T07:39:36.722Z,77.60
2018-03-28T07:42:02.693Z,78.90
2018-03-28T07:44:29.550Z,78.70
2018-03-28T07:46:55.511Z,78.70
2018-03-28T07:49:21.476Z,78.80
2018-03-28T07:51:48.208Z,77.80
2018-03-28T07:54:14.918Z,78.80
2018-03-28T07:56:40.908Z,78.00
2018-03-28T07:59:06.868Z,78.10
2018-03-28T08:01:32.961Z,78.00
2018-03-28T08:03:58.928Z,77.70
2018-03-28T08:06:24.939Z,76.20
2018-03-28T08:08:50.916Z,76.60
2018-03-28T08:11:16.853Z,77.30
2018-03-28T08:13:42.848Z,77.90
2018-03-28T08:16:09.676Z,77.30
2018-03-28T08:18:35.624Z,77.20
2018-03-28T08:21:01.729Z,78.10
2018-03-28T08:23:27.696Z,77.10
2018-03-28T08:25:53.672Z,77.20
2018-03-28T08:28:20.368Z,77.90
2018-03-28T08:30:46.308Z,77.80
2018-03-28T08:33:12.293Z,78.30
2018-03-28T08:35:38.251Z,78.50
2018-03-28T08:38:04.332Z,78.20
2018-03-28T08:40:30.281Z,79.00
2018-03-28T08:42:56.261Z,78.80
2018-03-28T08:45:22.224Z,79.10
2018-03-28T08:47:48.215Z,80.80
2018-03-28T08:50:14.176Z,81.50
2018-03-28T08:52:40.284Z,81.70
2018-03-28T08:55:06.242Z,80.90
2018-03-28T08:57:32.277Z,81.80
2018-03-28T08:59:58.997Z,82.00
2018-03-28T09:02:24.970Z,81.90
2018-03-28T09:04:50.904Z,82.70
2018-03-28T09:07:16.861Z,82.90
2018-03-28T09:09:42.953Z,83.20
2018-03-28T09:12:08.930Z,83.80
2018-03-28T09:14:35.920Z,83.70
2018-03-28T09:17:01.895Z,83.70
2018-03-28T09:19:27.919Z,83.30
2018-03-28T09:21:54.682Z,84.30
2018-03-28T09:24:20.801Z,84.30
2018-03-28T09:26:46.770Z,83.60
2018-03-28T09:29:12.748Z,82.80
2018-03-28T09:31:38.720Z,82.60
2018-03-28T09:34:04.663Z,82.60
2018-03-28T09:36:30.663Z,83.30
2018-03-28T09:38:56.620Z,83.50
2018-03-28T09:41:22.720Z,82.00
2018-03-28T09:43:48.673Z,82.30
2018-03-28T09:46:15.388Z,81.40
2018-03-28T09:48:41.342Z,81.40
2018-03-28T09:51:07.329Z,81.90
2018-03-28T09:53:33.264Z,81.10
2018-03-28T09:55:59.361Z,80.90
2018-03-28T09:58:25.460Z,80.00
2018-03-28T10:00:51.442Z,80.20
2018-03-28T10:03:18.178Z,78.80
2018-03-28T10:05:44.932Z,77.80
2018-03-28T10:08:11.620Z,77.80
2018-03-28T10:10:37.577Z,77.80
2018-03-28T10:13:03.514Z,77.00
2018-03-28T10:15:30.520Z,75.80
2018-03-28T10:17:56.515Z,75.70
2018-03-28T10:20:22.460Z,71.70
2018-03-28T10:22:48.448Z,63.90
2018-03-28T10:25:14.415Z,61.60
2018-03-28T10:27:40.547Z,63.30
2018-03-28T10:30:06.488Z,62.50
2018-03-28T10:32:33.378Z,58.00
2018-03-28T10:34:59.384Z,58.00
2018-03-28T10:37:25.348Z,57.80
2018-03-28T10:39:51.318Z,57.60
2018-03-28T10:42:17.301Z,58.10
2018-03-28T10:44:43.245Z,57.60
2018-03-28T10:47:10.089Z,56.80
2018-03-28T10:49:36.856Z,56.90
2018-03-28T10:52:02.852Z,56.90
2018-03-28T10:54:29.551Z,56.20
2018-03-28T10:56:55.503Z,56.10
2018-03-28T10:59:21.497Z,55.60
2018-03-28T11:01:47.440Z,55.80
2018-03-28T11:04:13.539Z,56.40
2018-03-28T11:06:39.487Z,56.90
2018-03-28T11:09:05.469Z,58.50
2018-03-28T11:11:31.451Z,58.90
2018-03-28T11:13:58.148Z,57.70
2018-03-28T11:16:24.311Z,57.70
2018-03-28T11:18:50.988Z,57.50
2018-03-28T11:21:16.940Z,57.50
2018-03-28T11:23:43.047Z,57.90
2018-03-28T11:26:08.996Z,58.20
2018-03-28T11:28:34.968Z,59.10
2018-03-28T11:31:00.944Z,58.90
2018-03-28T11:33:26.901Z,59.40
2018-03-28T11:35:53.017Z,59.20
2018-03-28T11:38:19.747Z,60.50
2018-03-28T11:40:46.656Z,60.40
2018-03-28T11:43:12.587Z,60.40
2018-03-28T11:45:38.565Z,60.60
2018-03-28T11:48:04.612Z,60.30
2018-03-28T11:50:30.733Z,60.80
2018-03-28T11:52:56.694Z,61.10
2018-03-28T11:55:22.656Z,61.50
2018-03-28T11:57:48.765Z,61.60
2018-03-28T12:00:15.481Z,62.20
2018-03-28T12:02:41.436Z,62.20
2018-03-28T12:05:07.397Z,62.60
2018-03-28T12:07:33.383Z,62.00
2018-03-28T12:09:59.340Z,61.70
2018-03-28T12:12:25.512Z,62.70
2018-03-28T12:14:52.424Z,63.30
2018-03-28T12:17:18.377Z,63.30
2018-03-28T12:19:44.344Z,63.00
2018-03-28T12:22:10.334Z,62.90
2018-03-28T12:24:36.333Z,62.90
2018-03-28T12:27:02.266Z,63.70
2018-03-28T12:29:29.164Z,63.80
2018-03-28T12:31:55.121Z,63.80
2018-03-28T12:34:21.104Z,64.00
2018-03-28T12:36:47.048Z,63.50
2018-03-28T12:39:13.060Z,63.70
2018-03-28T12:41:39.012Z,64.10
2018-03-28T12:44:04.964Z,64.90
2018-03-28T12:46:31.112Z,64.70
2018-03-28T12:48:57.078Z,64.80
2018-03-28T12:51:23.092Z,64.80
2018-03-28T12:53:49.072Z,65.30
2018-03-28T12:56:15.119Z,64.90
2018-03-28T12:58:41.085Z,65.00
2018-03-28T13:01:08.007Z,65.30
2018-03-28T13:03:33.964Z,65.30
2018-03-28T13:06:00.652Z,65.50
2018-03-28T13:08:26.647Z,65.50
2018-03-28T13:10:52.604Z,64.60
2018-03-28T13:13:18.565Z,64.60
2018-03-28T13:15:44.808Z,64.60
2018-03-28T13:18:10.765Z,64.10
2018-03-28T13:20:36.916Z,64.30
2018-03-28T13:23:02.848Z,64.50
2018-03-28T13:25:29.558Z,65.60
2018-03-28T13:27:55.617Z,65.60
2018-03-28T13:30:22.352Z,64.60
2018-03-28T13:32:49.254Z,64.70
2018-03-28T13:35:15.195Z,64.70
2018-03-28T13:37:41.164Z,65.30
2018-03-28T13:40:07.174Z,65.90
2018-03-28T13:42:33.888Z,66.10
2018-03-28T13:44:59.852Z,66.20
2018-03-28T13:47:25.788Z,66.90
2018-03-28T13:49:51.782Z,67.70
2018-03-28T13:52:18.472Z,70.20
2018-03-28T13:54:44.461Z,70.20
2018-03-28T13:57:10.469Z,71.80
2018-03-28T13:59:39.796Z,72.30
2018-03-28T14:02:07.921Z,73.00
2018-03-28T14:04:34.820Z,74.70
2018-03-28T14:07:00.828Z,74.80
2018-03-28T14:09:26.810Z,75.40
2018-03-28T14:11:52.736Z,76.10
2018-03-28T14:14:19.653Z,77.60
2018-03-28T14:16:45.638Z,77.00
2018-03-28T14:19:11.581Z,76.80
2018-03-28T14:21:37.591Z,77.10
2018-03-28T14:24:03.704Z,78.60
2018-03-28T14:26:29.716Z,77.90
2018-03-28T14:28:55.738Z,78.10
2018-03-28T14:31:22.457Z,79.50
2018-03-28T14:33:49.147Z,80.00
2018-03-28T14:36:15.365Z,79.10
2018-03-28T14:38:41.322Z,80.10
2018-03-28T14:41:07.267Z,79.90
2018-03-28T14:43:33.260Z,80.30
2018-03-28T14:45:59.258Z,82.30
2018-03-28T14:48:25.217Z,83.90
2018-03-28T14:50:51.184Z,82.70
2018-03-28T14:53:17.316Z,83.80
2018-03-28T14:55:43.249Z,84.10
2018-03-28T14:58:09.220Z,84.70
2018-03-28T15:00:35.164Z,84.60
2018-03-28T15:03:01.873Z,85.20
2018-03-28T15:05:27.849Z,85.20
2018-03-28T15:07:53.816Z,86.20
2018-03-28T15:10:20.009Z,86.40
2018-03-28T15:12:45.948Z,86.40
2018-03-28T15:15:12.148Z,86.70
2018-03-28T15:17:38.143Z,86.50
2018-03-28T15:20:04.092Z,86.80
2018-03-28T15:22:30.053Z,86.50
2018-03-28T15:24:55.995Z,86.90
2018-03-28T15:27:22.087Z,88.10
2018-03-28T15:29:48.040Z,88.30
2018-03-28T15:32:14.771Z,88.90
2018-03-28T15:34:40.724Z,88.90
2018-03-28T15:37:06.691Z,89.20
2018-03-28T15:39:32.687Z,89.40
2018-03-28T15:41:58.640Z,89.40
2018-03-28T15:44:24.739Z,89.10
2018-03-28T15:46:50.717Z,88.90
2018-03-28T15:49:17.440Z,89.50
2018-03-28T15:51:43.416Z,89.40
2018-03-28T15:54:09.443Z,89.90
2018-03-28T15:56:35.391Z,90.10
2018-03-28T15:59:01.496Z,90.10
2018-03-28T16:01:27.455Z,90.30
2018-03-28T16:03:53.399Z,90.00
2018-03-28T16:06:20.108Z,90.10
2018-03-28T16:08:46.132Z,90.10
2018-03-28T16:11:12.143Z,90.30
2018-03-28T16:13:38.116Z,90.40
2018-03-28T16:16:04.361Z,90.60
2018-03-28T16:18:30.305Z,90.60
2018-03-28T16:20:56.297Z,90.60
2018-03-28T16:23:22.269Z,90.70
2018-03-28T16:25:48.231Z,90.90
2018-03-28T16:28:14.228Z,91.00
2018-03-28T16:30:40.373Z,91.00
2018-03-28T16:33:07.072Z,91.10
2018-03-28T16:35:33.066Z,91.10
2018-03-28T16:37:59.028Z,91.40
2018-03-28T16:40:25.001Z,91.60
2018-03-28T16:42:50.977Z,91.50
2018-03-28T16:45:16.954Z,91.60
2018-03-28T16:47:43.128Z,91.80
2018-03-28T16:50:09.078Z,91.40
2018-03-28T16:52:35.815Z,91.60
2018-03-28T16:55:01.804Z,91.50
2018-03-28T16:57:27.793Z,91.50
2018-03-28T16:59:53.802Z,91.30
2018-03-28T17:02:19.769Z,91.40
2018-03-28T17:04:45.972Z,91.30
2018-03-28T17:07:11.920Z,91.40
2018-03-28T17:09:37.920Z,91.40
2018-03-28T17:12:03.892Z,91.40
2018-03-28T17:14:30.836Z,91.60
2018-03-28T17:16:57.543Z,91.40
2018-03-28T17:19:23.707Z,91.40
2018-03-28T17:21:49.658Z,91.40
2018-03-28T17:24:15.596Z,91.60
2018-03-28T17:26:41.574Z,91.40
2018-03-28T17:29:08.335Z,91.40
2018-03-28T17:31:34.287Z,91.40
2018-03-28T17:34:00.304Z,91.60
2018-03-28T17:36:26.425Z,91.40
2018-03-28T17:38:52.400Z,91.60
2018-03-28T17:41:19.153Z,91.70
2018-03-28T17:43:45.856Z,91.60
2018-03-28T17:46:11.845Z,91.60
2018-03-28T17:48:37.793Z,91.60
2018-03-28T17:51:03.903Z,91.70
2018-03-28T17:53:29.856Z,91.80
2018-03-28T17:55:55.869Z,92.10
2018-03-28T17:58:21.808Z,92.10
2018-03-28T18:00:47.785Z,92.20
2018-03-28T18:03:13.769Z,92.40
2018-03-28T18:05:40.469Z,92.60
2018-03-28T18:08:06.473Z,92.50
2018-03-28T18:10:32.437Z,92.70
2018-03-28T18:12:58.408Z,92.90
2018-03-28T18:15:28.130Z,93.10
2018-03-28T18:17:56.492Z,93.40
2018-03-28T18:20:22.454Z,93.10
2018-03-28T18:22:48.632Z,93.50
2018-03-28T18:25:14.591Z,93.00
2018-03-28T18:27:40.541Z,92.90
2018-03-28T18:30:06.513Z,92.60
2018-03-28T18:32:32.477Z,92.30
2018-03-28T18:34:58.443Z,92.40
2018-03-28T18:37:24.402Z,92.70
2018-03-28T18:39:50.569Z,92.50
2018-03-28T18:42:17.287Z,92.90
2018-03-28T18:44:43.250Z,92.90
2018-03-28T18:47:09.221Z,93.20
2018-03-28T18:49:35.160Z,92.70
2018-03-28T18:52:01.141Z,92.40
2018-03-28T18:54:27.113Z,92.40
2018-03-28T18:56:53.818Z,92.40
2018-03-28T18:59:27.338Z,92.40
2018-03-28T19:02:00.862Z,92.00
2018-03-28T19:04:35.518Z,91.30
2018-03-28T19:07:09.246Z,91.40
2018-03-28T19:09:35.440Z,91.00
2018-03-28T19:12:01.407Z,91.00
2018-03-28T19:14:27.607Z,90.80
2018-03-28T19:16:53.579Z,90.50
2018-03-28T19:19:20.296Z,90.10
2018-03-28T19:21:46.309Z,90.10
2018-03-28T19:24:12.288Z,90.20
2018-03-28T19:26:38.477Z,90.10
2018-03-28T19:29:04.463Z,89.40
2018-03-28T19:31:30.567Z,89.70
2018-03-28T19:33:56.513Z,89.00
2018-03-28T19:36:22.504Z,89.70
2018-03-28T19:38:48.486Z,90.10
2018-03-28T19:41:14.571Z,90.20
2018-03-28T19:43:40.522Z,90.10
2018-03-28T19:46:06.744Z,90.40
2018-03-28T19:48:32.706Z,90.40
2018-03-28T19:50:58.692Z,90.30
2018-03-28T19:53:24.631Z,90.50
2018-03-28T19:55:50.581Z,90.60
2018-03-28T19:58:16.728Z,90.50
2018-03-28T20:00:42.676Z,90.70
2018-03-28T20:03:08.684Z,90.50
2018-03-28T20:05:34.610Z,90.40
2018-03-28T20:08:00.593Z,90.50
2018-03-28T20:10:27.298Z,90.30
2018-03-28T20:12:53.322Z,90.30
2018-03-28T20:15:19.413Z,90.50
2018-03-28T20:17:45.523Z,90.50
2018-03-28T20:20:11.494Z,90.80
2018-03-28T20:22:37.508Z,90.90
2018-03-28T20:25:03.510Z,91.20
2018-03-28T20:27:29.486Z,91.10
2018-03-28T20:29:56.357Z,91.40
2018-03-28T20:32:22.301Z,91.40
2018-03-28T20:34:48.284Z,91.80
2018-03-28T20:37:15.002Z,91.80
2018-03-28T20:39:40.943Z,91.80
2018-03-28T20:42:07.672Z,92.40
2018-03-28T20:44:34.417Z,92.20
2018-03-28T20:47:01.287Z,92.40
2018-03-28T20:49:27.334Z,92.40
2018-03-28T20:51:53.281Z,92.20
2018-03-28T20:54:19.253Z,91.00
2018-03-28T20:56:45.220Z,90.70
2018-03-28T20:59:11.221Z,90.60
2018-03-28T21:01:37.209Z,90.00
2018-03-28T21:04:03.157Z,89.80
2018-03-28T21:06:29.113Z,90.00
2018-03-28T21:08:55.206Z,89.90
2018-03-28T21:11:21.160Z,89.90
2018-03-28T21:13:47.793Z,90.00
2018-03-28T21:16:13.901Z,90.10
2018-03-28T21:18:39.979Z,90.20
2018-03-28T21:21:06.664Z,90.20
2018-03-28T21:23:32.636Z,90.20
2018-03-28T21:25:59.332Z,90.60
2018-03-28T21:28:25.316Z,90.60
2018-03-28T21:30:51.245Z,90.60
2018-03-28T21:33:17.330Z,91.10
2018-03-28T21:35:44.059Z,91.40
2018-03-28T21:38:09.995Z,91.40
2018-03-28T21:40:36.000Z,91.50
2018-03-28T21:43:01.968Z,91.80
2018-03-28T21:45:27.980Z,92.20
2018-03-28T21:47:53.917Z,92.60
2018-03-28T21:50:19.873Z,92.80
2018-03-28T21:52:45.813Z,92.90
2018-03-28T21:55:11.941Z,93.20
2018-03-28T21:57:37.916Z,93.10
2018-03-28T22:00:03.911Z,92.90
2018-03-28T22:02:30.587Z,92.80
2018-03-28T22:04:56.544Z,92.80
2018-03-28T22:07:22.524Z,92.50
2018-03-28T22:09:48.461Z,91.90
2018-03-28T22:12:14.557Z,91.00
2018-03-28T22:14:40.648Z,90.10
2018-03-28T22:17:06.607Z,88.50
2018-03-28T22:19:32.596Z,88.30
2018-03-28T22:21:58.711Z,87.80
2018-03-28T22:24:24.668Z,87.80
2018-03-28T22:26:50.645Z,88.10
2018-03-28T22:29:16.720Z,88.30
2018-03-28T22:31:42.664Z,87.30
2018-03-28T22:34:08.648Z,87.60
2018-03-28T22:36:35.343Z,88.00
2018-03-28T22:39:01.317Z,88.00
2018-03-28T22:41:27.252Z,87.50
2018-03-28T22:43:53.338Z,87.60
2018-03-28T22:46:19.285Z,87.50
2018-03-28T22:48:45.241Z,86.20
2018-03-28T22:51:11.212Z,86.10
2018-03-28T22:53:37.896Z,84.20
2018-03-28T22:56:03.977Z,84.20
2018-03-28T22:58:30.668Z,84.10
2018-03-28T23:00:56.645Z,83.90
2018-03-28T23:03:23.366Z,83.60
2018-03-28T23:05:49.352Z,83.60
2018-03-28T23:08:15.304Z,83.20
2018-03-28T23:10:41.242Z,82.50
2018-03-28T23:13:08.060Z,83.90
2018-03-28T23:15:34.133Z,83.90
2018-03-28T23:18:00.138Z,84.00
2018-03-28T23:20:26.812Z,81.90
2018-03-28T23:22:52.767Z,82.20
2018-03-28T23:25:18.718Z,82.30
2018-03-28T23:27:44.695Z,82.10
2018-03-28T23:30:10.636Z,82.70
2018-03-28T23:32:36.591Z,82.90
2018-03-28T23:35:02.696Z,82.50
2018-03-28T23:37:28.675Z,82.50
2018-03-28T23:39:54.661Z,82.40
2018-03-28T23:42:21.403Z,82.00
2018-03-28T23:44:47.326Z,82.00
2018-03-28T23:47:14.004Z,83.40
2018-03-28T23:49:40.136Z,83.40
2018-03-28T23:52:06.072Z,82.60
2018-03-28T23:54:32.015Z,81.90
2018-03-28T23:56:58.709Z,82.60
2018-03-28T23:59:24.632Z,82.50
